createdAt,value
2022-09-22T00:01:40.609Z,102591.44
2022-09-22T00:04:13.050Z,102525.03
2022-09-22T00:06:44.751Z,102598.03
2022-09-22T00:09:15.562Z,102582.00
2022-09-22T00:11:47.484Z,102546.69
2022-09-22T00:14:21.687Z,102565.22
2022-09-22T00:16:54.634Z,102613.38
2022-09-22T00:19:25.802Z,102568.84
2022-09-22T00:21:54.593Z,102393.31
2022-09-22T00:24:24.709Z,102598.09
2022-09-22T00:26:59.396Z,102579.03
2022-09-22T00:29:30.099Z,102485.13
2022-09-22T00:32:04.876Z,102404.03
2022-09-22T00:34:35.500Z,102442.44
2022-09-22T00:37:03.944Z,102572.84
2022-09-22T00:39:32.513Z,102596.94
2022-09-22T00:42:01.490Z,102502.00
2022-09-22T00:44:40.696Z,102597.69
2022-09-22T00:47:28.763Z,102594.94
2022-09-22T00:50:04.442Z,102564.47
2022-09-22T00:52:38.642Z,102320.53
2022-09-22T00:55:14.062Z,102566.53
2022-09-22T00:57:43.860Z,102581.94
2022-09-22T01:00:15.151Z,102511.06
2022-09-22T01:02:48.302Z,102526.19
2022-09-22T01:05:17.603Z,102563.97
2022-09-22T01:07:47.668Z,102567.78
2022-09-22T01:10:19.407Z,102481.81
2022-09-22T01:12:59.505Z,102563.97
2022-09-22T01:15:36.858Z,102572.72
2022-09-22T01:18:21.580Z,102500.63
2022-09-22T01:21:33.325Z,102571.28
2022-09-22T01:24:38.804Z,102566.53
2022-09-22T01:28:15.063Z,102565.72
2022-09-22T01:30:49.487Z,102520.69
2022-09-22T01:33:38.380Z,102495.66
2022-09-22T01:36:26.928Z,102435.19
2022-09-22T01:39:08.501Z,102562.53
2022-09-22T01:41:53.301Z,102457.31
2022-09-22T01:44:30.155Z,102400.09
2022-09-22T01:47:06.408Z,102473.06
2022-09-22T01:49:40.391Z,102521.78
2022-09-22T01:52:14.839Z,102544.09
2022-09-22T01:54:47.666Z,102541.13
2022-09-22T01:57:19.796Z,102391.22
2022-09-22T02:00:00.001Z,102531.03
2022-09-22T02:02:34.657Z,102495.16
2022-09-22T02:05:13.402Z,102536.31
2022-09-22T02:07:47.126Z,102268.06
2022-09-22T02:10:18.899Z,102534.44
2022-09-22T02:12:51.968Z,102516.56
2022-09-22T02:15:38.334Z,102530.94
2022-09-22T02:18:14.813Z,102448.41
2022-09-22T02:20:43.482Z,102475.13
2022-09-22T02:23:12.175Z,102519.66
2022-09-22T02:25:42.876Z,102521.69
2022-09-22T02:28:15.177Z,102355.41
2022-09-22T02:31:04.379Z,102506.72
2022-09-22T02:33:39.263Z,102507.69
2022-09-22T02:36:24.128Z,102477.72
2022-09-22T02:39:01.439Z,102506.53
2022-09-22T02:41:54.759Z,102503.91
2022-09-22T02:44:30.067Z,102513.47
2022-09-22T02:47:05.039Z,102495.72
2022-09-22T02:49:37.838Z,102248.34
2022-09-22T02:52:12.441Z,102493.91
2022-09-22T02:54:41.001Z,102483.13
2022-09-22T02:57:10.964Z,102495.72
2022-09-22T02:59:39.552Z,102441.19
2022-09-22T03:02:08.026Z,102449.19
2022-09-22T03:04:37.973Z,102343.56
2022-09-22T03:07:07.357Z,102495.44
2022-09-22T03:09:35.994Z,102448.97
2022-09-22T03:12:04.876Z,102335.38
2022-09-22T03:14:33.281Z,102500.78
2022-09-22T03:17:01.800Z,102493.78
2022-09-22T03:19:30.204Z,102375.91
2022-09-22T03:21:59.976Z,102478.78
2022-09-22T03:24:28.770Z,102297.91
2022-09-22T03:26:57.413Z,102452.25
2022-09-22T03:29:26.036Z,102415.53
2022-09-22T03:31:54.560Z,102463.91
2022-09-22T03:34:23.106Z,102484.25
2022-09-22T03:36:54.734Z,102276.66
2022-09-22T03:39:24.621Z,102493.66
2022-09-22T03:41:56.291Z,102477.84
2022-09-22T03:44:26.649Z,102395.44
2022-09-22T03:46:55.059Z,102442.28
2022-09-22T03:49:23.520Z,102480.47
2022-09-22T03:51:55.098Z,102428.88
2022-09-22T03:54:25.007Z,102456.16
2022-09-22T03:56:56.568Z,102489.72
2022-09-22T03:59:25.065Z,102445.34
2022-09-22T04:01:58.087Z,102425.75
2022-09-22T04:04:26.847Z,102434.78
2022-09-22T04:06:55.603Z,102415.03
2022-09-22T04:09:25.483Z,102297.03
2022-09-22T04:11:54.268Z,102456.84
2022-09-22T04:14:22.788Z,102285.94
2022-09-22T04:16:53.490Z,102479.81
2022-09-22T04:19:22.928Z,102448.13
2022-09-22T04:21:56.981Z,102466.53
2022-09-22T04:24:27.137Z,102443.56
2022-09-22T04:27:18.480Z,102305.16
2022-09-22T04:29:44.385Z,102280.91
2022-09-22T04:32:12.864Z,102197.50
2022-09-22T04:34:41.396Z,102459.53
2022-09-22T04:37:10.495Z,102386.88
2022-09-22T04:39:40.635Z,102436.94
2022-09-22T04:42:09.656Z,102455.88
2022-09-22T04:44:38.097Z,102458.41
2022-09-22T04:47:07.183Z,102450.44
2022-09-22T04:49:35.621Z,102349.31
2022-09-22T04:52:04.954Z,102431.66
2022-09-22T04:54:33.568Z,102473.91
2022-09-22T04:57:03.570Z,102410.50
2022-09-22T04:59:32.107Z,102395.31
2022-09-22T05:02:03.213Z,102450.66
2022-09-22T05:04:31.662Z,102260.34
2022-09-22T05:07:00.649Z,102204.88
2022-09-22T05:09:29.421Z,102442.53
2022-09-22T05:12:01.399Z,102462.16
2022-09-22T05:14:32.609Z,102449.03
2022-09-22T05:17:04.577Z,102448.91
2022-09-22T05:19:33.252Z,102454.00
2022-09-22T05:22:02.562Z,102318.25
2022-09-22T05:24:32.474Z,102445.97
2022-09-22T05:27:01.778Z,102458.50
2022-09-22T05:29:31.667Z,102449.47
2022-09-22T05:32:03.806Z,102429.72
2022-09-22T05:34:32.473Z,102396.03
2022-09-22T05:37:01.917Z,102409.22
2022-09-22T05:39:31.017Z,102456.03
2022-09-22T05:42:01.734Z,102460.50
2022-09-22T05:44:31.706Z,102469.25
2022-09-22T05:47:00.817Z,102316.34
2022-09-22T05:49:29.257Z,102443.44
2022-09-22T05:51:58.968Z,102364.97
2022-09-22T05:54:27.453Z,102466.94
2022-09-22T05:56:57.283Z,102468.94
2022-09-22T05:59:25.735Z,102434.28
2022-09-22T06:01:59.541Z,102342.84
2022-09-22T06:04:28.355Z,102439.63
2022-09-22T06:06:56.806Z,102452.97
2022-09-22T06:09:25.389Z,102463.09
2022-09-22T06:11:53.818Z,102473.91
2022-09-22T06:14:22.489Z,102474.88
2022-09-22T06:16:53.698Z,102322.16
2022-09-22T06:19:24.336Z,102299.53
2022-09-22T06:21:54.343Z,102409.75
2022-09-22T06:24:24.159Z,102416.56
2022-09-22T06:26:53.982Z,102469.19
2022-09-22T06:29:22.349Z,102465.41
2022-09-22T06:31:53.817Z,102460.81
2022-09-22T06:34:24.246Z,102470.56
2022-09-22T06:36:54.583Z,102391.44
2022-09-22T06:39:23.469Z,102439.09
2022-09-22T06:41:53.353Z,102343.06
2022-09-22T06:44:22.446Z,102385.22
2022-09-22T06:46:53.684Z,102475.31
2022-09-22T06:49:23.418Z,102389.69
2022-09-22T06:51:53.178Z,102433.84
2022-09-22T06:54:23.839Z,102446.28
2022-09-22T06:56:53.788Z,102470.91
2022-09-22T06:59:22.422Z,102472.22
2022-09-22T07:01:53.445Z,102432.69
2022-09-22T07:04:23.571Z,102466.91
2022-09-22T07:06:53.275Z,102467.16
2022-09-22T07:09:22.657Z,102455.06
2022-09-22T07:11:54.020Z,102472.44
2022-09-22T07:14:22.535Z,102481.03
2022-09-22T07:16:54.811Z,102476.72
2022-09-22T07:19:24.723Z,102415.78
2022-09-22T07:21:53.504Z,102467.50
2022-09-22T07:24:22.197Z,102472.09
2022-09-22T07:26:52.994Z,102452.38
2022-09-22T07:29:21.586Z,102469.56
2022-09-22T07:31:50.856Z,102428.19
2022-09-22T07:34:19.998Z,102419.97
2022-09-22T07:36:52.780Z,102461.97
2022-09-22T07:39:21.169Z,102467.22
2022-09-22T07:41:51.700Z,102452.59
2022-09-22T07:44:42.301Z,102444.00
2022-09-22T07:47:12.953Z,102316.00
2022-09-22T07:49:43.029Z,102457.50
2022-09-22T07:52:14.001Z,102450.13
2022-09-22T07:54:43.001Z,102438.88
2022-09-22T07:57:11.560Z,102402.72
2022-09-22T07:59:41.690Z,102423.16
2022-09-22T08:02:11.608Z,102449.50
2022-09-22T08:04:41.214Z,102426.19
2022-09-22T08:07:09.709Z,102433.06
2022-09-22T08:09:39.548Z,102359.63
2022-09-22T08:12:09.565Z,102444.25
2022-09-22T08:14:38.140Z,102413.22
2022-09-22T08:17:12.315Z,102414.25
2022-09-22T08:19:41.593Z,102415.66
2022-09-22T08:22:12.481Z,102230.44
2022-09-22T08:24:44.348Z,102366.19
2022-09-22T08:27:12.846Z,102309.69
2022-09-22T08:29:43.830Z,102392.81
2022-09-22T08:32:12.298Z,102359.31
2022-09-22T08:34:40.744Z,102365.88
2022-09-22T08:37:09.503Z,102389.31
2022-09-22T08:39:38.218Z,102334.38
2022-09-22T08:42:18.406Z,102360.44
2022-09-22T08:45:00.840Z,102384.63
2022-09-22T08:47:58.438Z,102377.56
2022-09-22T08:50:54.397Z,102255.88
2022-09-22T08:53:23.735Z,102328.16
2022-09-22T08:56:05.346Z,102367.13
2022-09-22T08:58:47.573Z,102367.50
2022-09-22T09:01:45.790Z,102359.66
2022-09-22T09:04:44.803Z,102186.81
2022-09-22T09:07:23.648Z,102361.00
2022-09-22T09:10:04.803Z,102363.72
2022-09-22T09:12:54.258Z,102370.88
2022-09-22T09:15:48.694Z,102318.78
2022-09-22T09:18:21.099Z,102239.94
2022-09-22T09:20:53.259Z,102366.72
2022-09-22T09:26:20.485Z,102240.28
2022-09-22T09:28:58.247Z,102364.59
2022-09-22T09:31:38.374Z,102312.34
2022-09-22T09:34:11.720Z,102357.69
2022-09-22T09:36:45.715Z,102352.38
2022-09-22T09:39:18.355Z,102330.25
2022-09-22T09:41:48.148Z,102321.47
2022-09-22T09:44:24.207Z,102329.41
2022-09-22T09:47:03.515Z,102358.75
2022-09-22T09:49:32.369Z,102308.25
2022-09-22T09:52:05.166Z,102334.84
2022-09-22T09:54:34.290Z,102283.44
2022-09-22T09:57:10.384Z,102330.41
2022-09-22T10:00:00.581Z,102243.56
2022-09-22T10:02:34.738Z,102262.13
2022-09-22T10:05:08.789Z,102308.19
2022-09-22T10:07:44.937Z,102262.16
2022-09-22T10:10:36.372Z,102325.91
2022-09-22T10:13:31.854Z,102293.09
2022-09-22T10:16:33.541Z,102329.41
2022-09-22T10:19:42.646Z,102258.59
2022-09-22T10:22:27.493Z,102295.69
2022-09-22T10:25:00.051Z,102328.31
2022-09-22T10:27:31.297Z,102261.84
2022-09-22T10:30:23.834Z,102304.28
2022-09-22T10:33:15.588Z,102282.13
2022-09-22T10:35:48.289Z,102248.44
2022-09-22T10:38:21.541Z,102246.78
2022-09-22T10:40:57.488Z,102309.47
2022-09-22T10:43:45.336Z,102294.31
2022-09-22T10:46:58.009Z,102296.00
2022-09-22T10:49:47.857Z,102273.88
2022-09-22T10:52:25.585Z,102277.09
2022-09-22T10:55:25.900Z,102293.97
2022-09-22T10:58:18.299Z,102290.13
2022-09-22T11:00:47.546Z,102281.91
2022-09-22T11:03:47.405Z,102281.81
2022-09-22T11:06:51.293Z,102263.28
2022-09-22T11:09:52.303Z,102273.75
2022-09-22T11:12:39.333Z,102243.63
2022-09-22T11:15:48.588Z,102263.00
2022-09-22T11:18:39.692Z,102265.97
2022-09-22T11:21:24.336Z,102176.72
2022-09-22T11:24:27.741Z,102262.28
2022-09-22T11:26:58.724Z,102186.31
2022-09-22T11:30:10.662Z,102248.81
2022-09-22T11:33:08.559Z,102256.72
2022-09-22T11:36:12.461Z,102113.41
2022-09-22T11:39:06.342Z,102180.56
2022-09-22T11:41:43.202Z,102227.13
2022-09-22T11:44:37.435Z,102193.63
2022-09-22T11:47:58.929Z,102248.34
2022-09-22T11:50:43.418Z,102214.44
2022-09-22T11:53:35.038Z,102243.34
2022-09-22T11:56:31.480Z,102236.41
2022-09-22T11:59:09.957Z,102184.19
2022-09-22T12:01:40.839Z,102238.09
2022-09-22T12:04:23.108Z,102231.84
2022-09-22T12:06:57.005Z,102228.63
2022-09-22T12:09:37.886Z,102085.00
2022-09-22T12:12:09.464Z,102134.34
2022-09-22T12:14:39.486Z,102198.66
2022-09-22T12:17:18.782Z,102153.59
2022-09-22T12:20:01.039Z,102203.81
2022-09-22T12:22:35.679Z,102181.03
2022-09-22T12:25:04.240Z,102166.59
2022-09-22T12:27:34.079Z,102202.00
2022-09-22T12:30:13.421Z,102180.63
2022-09-22T12:32:45.924Z,102147.16
2022-09-22T12:35:20.277Z,102188.19
2022-09-22T12:37:48.784Z,102146.78
2022-09-22T12:40:29.358Z,102158.69
2022-09-22T12:43:01.679Z,102169.69
2022-09-22T12:45:36.465Z,102039.72
2022-09-22T12:48:12.057Z,102077.03
2022-09-22T12:50:42.976Z,102166.28
2022-09-22T12:53:25.607Z,102153.00
2022-09-22T12:55:55.831Z,102064.09
2022-09-22T12:58:44.260Z,102005.66
2022-09-22T13:01:35.826Z,102163.94
2022-09-22T13:04:16.804Z,102122.09
2022-09-22T13:07:00.525Z,102058.78
2022-09-22T13:09:31.821Z,102111.34
2022-09-22T13:12:27.101Z,102146.25
2022-09-22T13:15:20.866Z,102070.78
2022-09-22T13:17:53.962Z,102133.50
2022-09-22T13:20:26.801Z,102150.00
2022-09-22T13:22:56.694Z,102095.75
2022-09-22T13:25:28.893Z,102096.06
2022-09-22T13:28:16.542Z,102141.91
2022-09-22T13:30:46.832Z,102143.03
2022-09-22T13:33:25.402Z,102126.38
2022-09-22T13:36:06.573Z,102136.75
2022-09-22T13:38:39.338Z,102131.19
2022-09-22T13:41:13.700Z,102109.97
2022-09-22T13:43:46.071Z,102055.91
2022-09-22T13:46:23.193Z,102077.41
2022-09-22T13:48:55.264Z,102119.06
2022-09-22T13:51:25.006Z,102127.88
2022-09-22T13:53:56.419Z,101987.53
2022-09-22T13:56:27.003Z,102058.56
2022-09-22T13:59:00.189Z,102109.91
2022-09-22T14:01:30.905Z,102085.22
2022-09-22T14:04:01.302Z,102067.38
2022-09-22T14:06:34.252Z,102111.25
2022-09-22T14:09:02.944Z,102061.78
2022-09-22T14:11:33.542Z,102090.50
2022-09-22T14:14:03.554Z,102098.22
2022-09-22T14:16:37.168Z,102010.75
2022-09-22T14:19:15.799Z,101992.38
2022-09-22T14:21:51.505Z,102084.72
2022-09-22T14:24:20.903Z,102087.91
2022-09-22T14:26:52.612Z,102004.16
2022-09-22T14:29:26.531Z,102010.16
2022-09-22T14:32:00.452Z,102029.69
2022-09-22T14:34:34.145Z,102065.38
2022-09-22T14:37:16.864Z,102075.09
2022-09-22T14:39:46.254Z,101950.94
2022-09-22T14:42:23.344Z,101965.53
2022-09-22T14:44:53.928Z,102069.91
2022-09-22T14:47:27.353Z,101870.38
2022-09-22T14:50:18.799Z,102036.88
2022-09-22T14:53:00.151Z,102063.22
2022-09-22T14:55:35.935Z,101871.69
2022-09-22T14:58:09.640Z,102064.03
2022-09-22T15:00:55.602Z,102026.63
2022-09-22T15:03:29.129Z,101921.78
2022-09-22T15:06:09.453Z,102007.94
2022-09-22T15:08:38.662Z,102057.69
2022-09-22T15:11:07.387Z,101932.66
2022-09-22T15:13:42.624Z,102014.41
2022-09-22T15:16:40.749Z,102018.00
2022-09-22T15:19:13.273Z,102052.50
2022-09-22T15:21:46.220Z,102014.88
2022-09-22T15:24:16.963Z,102013.94
2022-09-22T15:26:46.582Z,101926.47
2022-09-22T15:29:17.444Z,102042.59
2022-09-22T15:31:46.044Z,102043.81
2022-09-22T15:34:17.062Z,102045.25
2022-09-22T15:36:51.429Z,101989.88
2022-09-22T15:39:25.316Z,102049.19
2022-09-22T15:41:54.563Z,102016.88
2022-09-22T15:44:22.975Z,102038.66
2022-09-22T15:46:54.912Z,101996.41
2022-09-22T15:49:26.503Z,101899.69
2022-09-22T15:51:56.966Z,102005.72
2022-09-22T15:54:26.921Z,102041.94
2022-09-22T15:56:57.966Z,102042.63
2022-09-22T15:59:32.333Z,102035.47
2022-09-22T16:02:04.198Z,102034.81
2022-09-22T16:04:33.746Z,102026.78
2022-09-22T16:07:08.757Z,102026.81
2022-09-22T16:09:37.747Z,101992.56
2022-09-22T16:12:08.636Z,101883.28
2022-09-22T16:14:37.332Z,101976.03
2022-09-22T16:17:07.728Z,102010.47
2022-09-22T16:19:36.297Z,101999.94
2022-09-22T16:22:06.362Z,102011.75
2022-09-22T16:24:34.898Z,101850.50
2022-09-22T16:27:04.180Z,101995.25
2022-09-22T16:29:37.507Z,101978.81
2022-09-22T16:32:06.264Z,101948.19
2022-09-22T16:34:35.997Z,102024.13
2022-09-22T16:37:06.420Z,101836.31
2022-09-22T16:39:35.071Z,101866.44
2022-09-22T16:42:03.828Z,101882.25
2022-09-22T16:44:32.615Z,102014.91
2022-09-22T16:47:02.242Z,101942.56
2022-09-22T16:49:34.043Z,101963.81
2022-09-22T16:52:02.816Z,101978.88
2022-09-22T16:54:34.543Z,102013.41
2022-09-22T16:57:02.953Z,101963.06
2022-09-22T16:59:31.411Z,102016.16
2022-09-22T17:02:00.080Z,102011.72
2022-09-22T17:04:28.790Z,101849.16
2022-09-22T17:06:58.916Z,101859.75
2022-09-22T17:09:27.657Z,101809.41
2022-09-22T17:11:57.960Z,102011.75
2022-09-22T17:14:29.186Z,102007.38
2022-09-22T17:17:00.614Z,101975.53
2022-09-22T17:19:31.728Z,102002.06
2022-09-22T17:22:00.931Z,102015.31
2022-09-22T17:24:29.383Z,102010.84
2022-09-22T17:27:00.849Z,102010.81
2022-09-22T17:29:32.800Z,101931.19
2022-09-22T17:32:08.395Z,101995.72
2022-09-22T17:34:38.341Z,102012.50
2022-09-22T17:37:07.198Z,101981.47
2022-09-22T17:39:36.008Z,102009.81
2022-09-22T17:42:06.133Z,101809.84
2022-09-22T17:44:35.665Z,102000.88
2022-09-22T17:47:18.405Z,101932.66
2022-09-22T17:50:04.422Z,102005.16
2022-09-22T17:52:51.184Z,101986.50
2022-09-22T17:55:25.435Z,101981.06
2022-09-22T17:57:56.454Z,101999.63
2022-09-22T18:00:25.680Z,101901.25
2022-09-22T18:02:55.300Z,101997.72
2022-09-22T18:05:26.865Z,101920.66
2022-09-22T18:08:00.744Z,101960.41
2022-09-22T18:10:34.039Z,101910.91
2022-09-22T18:13:04.492Z,102016.16
2022-09-22T18:15:32.924Z,102009.00
2022-09-22T18:18:04.494Z,101921.19
2022-09-22T18:20:34.503Z,101945.00
2022-09-22T18:23:03.144Z,102009.75
2022-09-22T18:25:33.992Z,102007.00
2022-09-22T18:28:05.649Z,101940.38
2022-09-22T18:30:34.556Z,101981.03
2022-09-22T18:33:02.951Z,102013.81
2022-09-22T18:35:32.217Z,102004.97
2022-09-22T18:38:01.170Z,101903.03
2022-09-22T18:40:29.831Z,101944.66
2022-09-22T18:43:01.431Z,102017.28
2022-09-22T18:45:32.139Z,101996.72
2022-09-22T18:48:02.867Z,101868.28
2022-09-22T18:50:35.707Z,101985.09
2022-09-22T18:53:04.294Z,101995.72
2022-09-22T18:55:32.817Z,101970.72
2022-09-22T18:58:01.881Z,101815.84
2022-09-22T19:00:31.756Z,101956.59
2022-09-22T19:03:01.059Z,101983.09
2022-09-22T19:05:29.719Z,101956.44
2022-09-22T19:07:59.664Z,102005.13
2022-09-22T19:10:28.271Z,101991.91
2022-09-22T19:12:56.830Z,101893.41
2022-09-22T19:15:25.811Z,101983.78
2022-09-22T19:17:55.971Z,101927.75
2022-09-22T19:20:24.561Z,101837.25
2022-09-22T19:22:54.521Z,101871.81
2022-09-22T19:25:23.799Z,101928.34
2022-09-22T19:27:54.707Z,102011.72
2022-09-22T19:30:27.540Z,101963.84
2022-09-22T19:33:01.691Z,101946.94
2022-09-22T19:35:30.906Z,101952.22
2022-09-22T19:37:59.959Z,102013.41
2022-09-22T19:40:28.464Z,102021.09
2022-09-22T19:42:57.285Z,101985.47
2022-09-22T19:45:26.649Z,101939.41
2022-09-22T19:47:57.000Z,102024.50
2022-09-22T19:50:27.424Z,101967.63
2022-09-22T19:52:55.898Z,101861.19
2022-09-22T19:55:24.479Z,102023.34
2022-09-22T19:57:54.221Z,101978.97
2022-09-22T20:00:26.202Z,102014.28
2022-09-22T20:02:58.942Z,101971.81
2022-09-22T20:05:33.716Z,102013.47
2022-09-22T20:08:03.768Z,101933.63
2022-09-22T20:10:33.015Z,102003.63
2022-09-22T20:13:21.988Z,101848.41
2022-09-22T20:15:52.951Z,101941.44
2022-09-22T20:18:21.722Z,101951.91
2022-09-22T20:20:54.378Z,101962.34
2022-09-22T20:23:23.994Z,102005.75
2022-09-22T20:25:55.996Z,101956.09
2022-09-22T20:28:24.505Z,101969.41
2022-09-22T20:30:53.565Z,102001.94
2022-09-22T20:33:25.321Z,101847.66
2022-09-22T20:35:56.189Z,101955.72
2022-09-22T20:38:25.069Z,101843.19
2022-09-22T20:40:54.265Z,101950.38
2022-09-22T20:43:22.748Z,101855.31
2022-09-22T20:45:52.657Z,101912.06
2022-09-22T20:48:21.068Z,101987.47
2022-09-22T20:50:57.919Z,101989.13
2022-09-22T20:53:27.604Z,101978.31
2022-09-22T20:56:01.207Z,101994.09
2022-09-22T20:58:32.282Z,101986.16
2022-09-22T21:01:02.244Z,101918.53
2022-09-22T21:03:33.475Z,101984.38
2022-09-22T21:06:06.242Z,101967.59
2022-09-22T21:08:55.292Z,101908.75
2022-09-22T21:11:24.597Z,101914.00
2022-09-22T21:13:55.743Z,101926.44
2022-09-22T21:16:24.799Z,101966.50
2022-09-22T21:18:53.447Z,101968.22
2022-09-22T21:21:23.483Z,101963.75
2022-09-22T21:23:56.082Z,101779.25
2022-09-22T21:26:24.883Z,101956.59
2022-09-22T21:28:54.422Z,101881.13
2022-09-22T21:31:23.565Z,101955.63
2022-09-22T21:33:55.101Z,101933.38
2022-09-22T21:36:26.121Z,101932.41
2022-09-22T21:38:58.493Z,101887.81
2022-09-22T21:41:30.336Z,101937.63
2022-09-22T21:44:00.012Z,101951.78
2022-09-22T21:46:30.622Z,101967.41
2022-09-22T21:49:02.302Z,101943.69
2022-09-22T21:51:35.071Z,101936.59
2022-09-22T21:54:07.205Z,101945.41
2022-09-22T21:56:36.189Z,101808.81
2022-09-22T21:59:04.644Z,101928.66
2022-09-22T22:01:36.340Z,101841.69
2022-09-22T22:04:08.054Z,101928.56
2022-09-22T22:06:42.101Z,101928.66
2022-09-22T22:09:15.255Z,101840.72
2022-09-22T22:11:49.293Z,101906.28
2022-09-22T22:14:20.432Z,101866.16
2022-09-22T22:16:51.436Z,101822.03
2022-09-22T22:19:21.980Z,101954.59
2022-09-22T22:21:53.552Z,101923.06
2022-09-22T22:24:36.100Z,101877.72
2022-09-22T22:27:06.892Z,101890.97
2022-09-22T22:29:38.614Z,101846.56
2022-09-22T22:32:10.517Z,101785.47
2022-09-22T22:34:39.434Z,101926.31
2022-09-22T22:37:10.722Z,101898.84
2022-09-22T22:39:39.195Z,101912.28
2022-09-22T22:42:08.536Z,101891.59
2022-09-22T22:44:36.998Z,101892.63
2022-09-22T22:47:06.252Z,101853.41
2022-09-22T22:49:34.904Z,101750.44
2022-09-22T22:52:04.015Z,101833.19
2022-09-22T22:54:48.375Z,101904.13
2022-09-22T22:57:16.938Z,101882.03
2022-09-22T22:59:45.394Z,101903.97
2022-09-22T23:02:14.305Z,101877.34
2022-09-22T23:04:42.713Z,101898.56
2022-09-22T23:07:11.728Z,101895.19
2022-09-22T23:09:41.704Z,101900.47
2022-09-22T23:12:10.620Z,101896.09
2022-09-22T23:14:39.383Z,101895.16
2022-09-22T23:17:07.764Z,101887.25
2022-09-22T23:19:36.149Z,101839.22
2022-09-22T23:22:04.868Z,101733.78
2022-09-22T23:24:33.427Z,101724.38
2022-09-22T23:27:03.334Z,101884.06
2022-09-22T23:29:31.842Z,101745.72
2022-09-22T23:32:00.220Z,101776.72
2022-09-22T23:34:28.979Z,101751.03
2022-09-22T23:36:57.516Z,101738.47
2022-09-22T23:39:26.040Z,101892.03
2022-09-22T23:41:55.110Z,101748.59
2022-09-22T23:44:24.895Z,101751.22
2022-09-22T23:46:55.024Z,101879.66
2022-09-22T23:49:23.495Z,101863.84
2022-09-22T23:51:54.336Z,101875.94
2022-09-22T23:54:22.841Z,101855.59
2022-09-22T23:56:52.485Z,101861.97
2022-09-22T23:59:21.201Z,101780.53
